sensor_id;sensor_type;location;lat;lon;timestamp;P1;durP1;ratioP1;P2;durP2;ratioP2
42912;SDS011;50720;54.324;18.558;2023-09-19T00:02:22;18.67;;;16.67;;
42912;SDS011;50720;54.324;18.558;2023-09-19T00:05:10;23.80;;;18.17;;
42912;SDS011;50720;54.324;18.558;2023-09-19T00:07:57;24.20;;;17.65;;
42912;SDS011;50720;54.324;18.558;2023-09-19T00:10:44;20.55;;;17.98;;
42912;SDS011;50720;54.324;18.558;2023-09-19T00:13:33;23.13;;;17.98;;
42912;SDS011;50720;54.324;18.558;2023-09-19T00:16:21;24.52;;;18.23;;
42912;SDS011;50720;54.324;18.558;2023-09-19T00:19:09;21.00;;;18.15;;
42912;SDS011;50720;54.324;18.558;2023-09-19T00:21:57;21.02;;;18.17;;
42912;SDS011;50720;54.324;18.558;2023-09-19T00:24:43;22.50;;;18.08;;
42912;SDS011;50720;54.324;18.558;2023-09-19T00:27:32;20.27;;;18.02;;
42912;SDS011;50720;54.324;18.558;2023-09-19T00:30:19;20.33;;;17.67;;
42912;SDS011;50720;54.324;18.558;2023-09-19T00:33:06;20.08;;;17.98;;
42912;SDS011;50720;54.324;18.558;2023-09-19T00:35:57;19.27;;;16.88;;
42912;SDS011;50720;54.324;18.558;2023-09-19T00:38:44;21.75;;;17.38;;
42912;SDS011;50720;54.324;18.558;2023-09-19T00:41:31;22.35;;;17.77;;
42912;SDS011;50720;54.324;18.558;2023-09-19T00:44:20;19.13;;;17.13;;
42912;SDS011;50720;54.324;18.558;2023-09-19T00:47:07;31.90;;;18.77;;
42912;SDS011;50720;54.324;18.558;2023-09-19T00:50:00;22.60;;;17.88;;
42912;SDS011;50720;54.324;18.558;2023-09-19T00:52:50;18.42;;;16.52;;
42912;SDS011;50720;54.324;18.558;2023-09-19T00:55:41;21.52;;;16.50;;
42912;SDS011;50720;54.324;18.558;2023-09-19T00:58:29;22.85;;;18.13;;
42912;SDS011;50720;54.324;18.558;2023-09-19T01:01:18;20.88;;;18.08;;
42912;SDS011;50720;54.324;18.558;2023-09-19T01:04:05;22.20;;;19.00;;
42912;SDS011;50720;54.324;18.558;2023-09-19T01:06:53;22.73;;;17.70;;
42912;SDS011;50720;54.324;18.558;2023-09-19T01:09:42;24.88;;;20.52;;
42912;SDS011;50720;54.324;18.558;2023-09-19T01:12:30;23.95;;;19.38;;
42912;SDS011;50720;54.324;18.558;2023-09-19T01:15:28;23.00;;;19.42;;
42912;SDS011;50720;54.324;18.558;2023-09-19T01:18:27;23.10;;;19.27;;
42912;SDS011;50720;54.324;18.558;2023-09-19T01:21:23;22.70;;;19.83;;
42912;SDS011;50720;54.324;18.558;2023-09-19T01:24:22;28.20;;;20.90;;
42912;SDS011;50720;54.324;18.558;2023-09-19T01:27:37;23.40;;;20.15;;
42912;SDS011;50720;54.324;18.558;2023-09-19T01:30:47;24.85;;;21.30;;
42912;SDS011;50720;54.324;18.558;2023-09-19T01:33:55;28.25;;;20.90;;
42912;SDS011;50720;54.324;18.558;2023-09-19T01:36:43;25.83;;;20.63;;
42912;SDS011;50720;54.324;18.558;2023-09-19T01:39:31;25.15;;;20.75;;
42912;SDS011;50720;54.324;18.558;2023-09-19T01:42:21;24.52;;;20.58;;
42912;SDS011;50720;54.324;18.558;2023-09-19T01:45:18;26.30;;;20.42;;
42912;SDS011;50720;54.324;18.558;2023-09-19T01:48:17;26.20;;;20.20;;
42912;SDS011;50720;54.324;18.558;2023-09-19T01:51:09;23.75;;;19.58;;
42912;SDS011;50720;54.324;18.558;2023-09-19T01:53:59;23.25;;;19.02;;
42912;SDS011;50720;54.324;18.558;2023-09-19T01:56:50;23.35;;;18.48;;
42912;SDS011;50720;54.324;18.558;2023-09-19T01:59:45;20.60;;;16.52;;
42912;SDS011;50720;54.324;18.558;2023-09-19T02:02:38;20.77;;;15.27;;
42912;SDS011;50720;54.324;18.558;2023-09-19T02:05:31;20.35;;;15.57;;
42912;SDS011;50720;54.324;18.558;2023-09-19T02:08:18;21.10;;;14.63;;
42912;SDS011;50720;54.324;18.558;2023-09-19T02:11:08;19.25;;;14.35;;
42912;SDS011;50720;54.324;18.558;2023-09-19T02:13:55;20.00;;;13.77;;
42912;SDS011;50720;54.324;18.558;2023-09-19T02:16:43;16.40;;;13.95;;
42912;SDS011;50720;54.324;18.558;2023-09-19T02:19:30;16.83;;;13.23;;
42912;SDS011;50720;54.324;18.558;2023-09-19T02:22:20;18.67;;;12.07;;
42912;SDS011;50720;54.324;18.558;2023-09-19T02:25:09;17.20;;;12.60;;
42912;SDS011;50720;54.324;18.558;2023-09-19T02:27:58;16.17;;;12.30;;
42912;SDS011;50720;54.324;18.558;2023-09-19T02:30:47;16.70;;;12.85;;
42912;SDS011;50720;54.324;18.558;2023-09-19T02:33:35;13.30;;;10.88;;
42912;SDS011;50720;54.324;18.558;2023-09-19T02:36:22;17.50;;;10.88;;
42912;SDS011;50720;54.324;18.558;2023-09-19T02:39:11;18.55;;;11.18;;
42912;SDS011;50720;54.324;18.558;2023-09-19T02:41:58;14.82;;;10.27;;
42912;SDS011;50720;54.324;18.558;2023-09-19T02:44:45;14.38;;;10.32;;
42912;SDS011;50720;54.324;18.558;2023-09-19T02:47:32;16.70;;;10.75;;
42912;SDS011;50720;54.324;18.558;2023-09-19T02:50:19;12.02;;;9.10;;
42912;SDS011;50720;54.324;18.558;2023-09-19T02:53:06;14.10;;;8.55;;
42912;SDS011;50720;54.324;18.558;2023-09-19T02:55:57;11.88;;;8.38;;
42912;SDS011;50720;54.324;18.558;2023-09-19T02:58:45;10.38;;;7.32;;
42912;SDS011;50720;54.324;18.558;2023-09-19T03:01:33;12.57;;;7.38;;
42912;SDS011;50720;54.324;18.558;2023-09-19T03:04:21;12.02;;;6.65;;
42912;SDS011;50720;54.324;18.558;2023-09-19T03:07:08;8.82;;;6.22;;
42912;SDS011;50720;54.324;18.558;2023-09-19T03:09:56;7.32;;;5.38;;
42912;SDS011;50720;54.324;18.558;2023-09-19T03:12:45;13.50;;;5.32;;
42912;SDS011;50720;54.324;18.558;2023-09-19T03:15:32;7.90;;;5.35;;
42912;SDS011;50720;54.324;18.558;2023-09-19T03:18:23;9.90;;;5.68;;
42912;SDS011;50720;54.324;18.558;2023-09-19T03:21:10;10.32;;;5.50;;
42912;SDS011;50720;54.324;18.558;2023-09-19T03:23:58;13.60;;;5.65;;
42912;SDS011;50720;54.324;18.558;2023-09-19T03:26:44;8.18;;;5.82;;
42912;SDS011;50720;54.324;18.558;2023-09-19T03:29:33;8.15;;;4.82;;
42912;SDS011;50720;54.324;18.558;2023-09-19T03:32:21;9.77;;;5.22;;
42912;SDS011;50720;54.324;18.558;2023-09-19T03:35:10;9.93;;;4.75;;
42912;SDS011;50720;54.324;18.558;2023-09-19T03:37:58;6.70;;;5.20;;
42912;SDS011;50720;54.324;18.558;2023-09-19T03:40:45;8.10;;;5.70;;
42912;SDS011;50720;54.324;18.558;2023-09-19T03:43:33;11.65;;;5.55;;
42912;SDS011;50720;54.324;18.558;2023-09-19T03:46:22;6.50;;;5.15;;
42912;SDS011;50720;54.324;18.558;2023-09-19T03:49:09;8.75;;;4.80;;
42912;SDS011;50720;54.324;18.558;2023-09-19T03:51:56;13.15;;;5.57;;
42912;SDS011;50720;54.324;18.558;2023-09-19T03:54:43;7.47;;;5.22;;
42912;SDS011;50720;54.324;18.558;2023-09-19T03:57:30;9.85;;;5.72;;
42912;SDS011;50720;54.324;18.558;2023-09-19T04:00:17;9.55;;;6.13;;
42912;SDS011;50720;54.324;18.558;2023-09-19T04:03:07;11.07;;;5.93;;
42912;SDS011;50720;54.324;18.558;2023-09-19T04:06:03;7.90;;;4.75;;
42912;SDS011;50720;54.324;18.558;2023-09-19T04:08:50;6.60;;;5.38;;
42912;SDS011;50720;54.324;18.558;2023-09-19T04:11:37;8.73;;;6.10;;
42912;SDS011;50720;54.324;18.558;2023-09-19T04:14:25;8.88;;;5.40;;
42912;SDS011;50720;54.324;18.558;2023-09-19T04:17:11;10.40;;;6.80;;
42912;SDS011;50720;54.324;18.558;2023-09-19T04:20:01;11.30;;;6.35;;
42912;SDS011;50720;54.324;18.558;2023-09-19T04:22:52;11.88;;;6.53;;
42912;SDS011;50720;54.324;18.558;2023-09-19T04:25:40;13.70;;;6.97;;
42912;SDS011;50720;54.324;18.558;2023-09-19T04:28:27;10.23;;;6.65;;
42912;SDS011;50720;54.324;18.558;2023-09-19T04:31:14;12.50;;;8.82;;
42912;SDS011;50720;54.324;18.558;2023-09-19T04:34:01;14.02;;;7.63;;
42912;SDS011;50720;54.324;18.558;2023-09-19T04:36:50;8.73;;;6.47;;
42912;SDS011;50720;54.324;18.558;2023-09-19T04:39:37;9.15;;;6.45;;
42912;SDS011;50720;54.324;18.558;2023-09-19T04:42:24;16.38;;;8.45;;
42912;SDS011;50720;54.324;18.558;2023-09-19T04:45:11;13.02;;;7.35;;
42912;SDS011;50720;54.324;18.558;2023-09-19T04:48:00;11.20;;;7.07;;
42912;SDS011;50720;54.324;18.558;2023-09-19T04:50:48;13.10;;;7.60;;
42912;SDS011;50720;54.324;18.558;2023-09-19T04:53:37;12.25;;;7.88;;
42912;SDS011;50720;54.324;18.558;2023-09-19T04:56:25;14.55;;;8.23;;
42912;SDS011;50720;54.324;18.558;2023-09-19T04:59:13;16.17;;;8.68;;
42912;SDS011;50720;54.324;18.558;2023-09-19T05:02:00;12.90;;;8.35;;
42912;SDS011;50720;54.324;18.558;2023-09-19T05:04:47;12.82;;;8.65;;
42912;SDS011;50720;54.324;18.558;2023-09-19T05:07:34;20.50;;;9.48;;
42912;SDS011;50720;54.324;18.558;2023-09-19T05:10:23;9.15;;;7.93;;
42912;SDS011;50720;54.324;18.558;2023-09-19T05:13:10;13.32;;;7.72;;
42912;SDS011;50720;54.324;18.558;2023-09-19T05:15:59;12.40;;;7.88;;
42912;SDS011;50720;54.324;18.558;2023-09-19T05:18:47;12.25;;;7.55;;
42912;SDS011;50720;54.324;18.558;2023-09-19T05:21:36;12.48;;;7.28;;
42912;SDS011;50720;54.324;18.558;2023-09-19T05:24:23;10.50;;;6.60;;
42912;SDS011;50720;54.324;18.558;2023-09-19T05:27:12;11.20;;;6.78;;
42912;SDS011;50720;54.324;18.558;2023-09-19T05:30:01;9.63;;;6.18;;
42912;SDS011;50720;54.324;18.558;2023-09-19T05:32:49;9.90;;;7.82;;
42912;SDS011;50720;54.324;18.558;2023-09-19T05:35:37;14.25;;;7.05;;
42912;SDS011;50720;54.324;18.558;2023-09-19T05:38:24;11.88;;;7.28;;
42912;SDS011;50720;54.324;18.558;2023-09-19T05:41:12;16.08;;;7.05;;
42912;SDS011;50720;54.324;18.558;2023-09-19T05:44:01;8.57;;;6.13;;
42912;SDS011;50720;54.324;18.558;2023-09-19T05:46:48;13.73;;;6.90;;
42912;SDS011;50720;54.324;18.558;2023-09-19T05:49:35;8.77;;;6.85;;
42912;SDS011;50720;54.324;18.558;2023-09-19T05:52:23;15.55;;;7.78;;
42912;SDS011;50720;54.324;18.558;2023-09-19T05:55:10;14.55;;;6.40;;
42912;SDS011;50720;54.324;18.558;2023-09-19T05:57:57;11.43;;;5.95;;
42912;SDS011;50720;54.324;18.558;2023-09-19T06:00:45;12.00;;;6.68;;
42912;SDS011;50720;54.324;18.558;2023-09-19T06:03:33;9.20;;;4.73;;
42912;SDS011;50720;54.324;18.558;2023-09-19T06:06:21;9.82;;;5.32;;
42912;SDS011;50720;54.324;18.558;2023-09-19T06:09:08;8.30;;;4.10;;
42912;SDS011;50720;54.324;18.558;2023-09-19T06:11:55;9.40;;;4.10;;
42912;SDS011;50720;54.324;18.558;2023-09-19T06:14:44;12.23;;;4.75;;
42912;SDS011;50720;54.324;18.558;2023-09-19T06:17:33;8.25;;;4.80;;
42912;SDS011;50720;54.324;18.558;2023-09-19T06:20:22;8.13;;;4.97;;
42912;SDS011;50720;54.324;18.558;2023-09-19T06:23:10;8.63;;;4.45;;
42912;SDS011;50720;54.324;18.558;2023-09-19T06:25:57;6.75;;;4.18;;
42912;SDS011;50720;54.324;18.558;2023-09-19T06:28:44;5.72;;;4.90;;
42912;SDS011;50720;54.324;18.558;2023-09-19T06:31:31;7.50;;;4.40;;
42912;SDS011;50720;54.324;18.558;2023-09-19T06:34:20;8.35;;;4.90;;
42912;SDS011;50720;54.324;18.558;2023-09-19T06:37:07;7.38;;;4.55;;
42912;SDS011;50720;54.324;18.558;2023-09-19T06:39:54;9.98;;;4.97;;
42912;SDS011;50720;54.324;18.558;2023-09-19T06:42:41;8.35;;;4.63;;
42912;SDS011;50720;54.324;18.558;2023-09-19T06:45:29;7.43;;;4.38;;
42912;SDS011;50720;54.324;18.558;2023-09-19T06:48:16;12.10;;;5.28;;
42912;SDS011;50720;54.324;18.558;2023-09-19T06:51:05;7.13;;;5.00;;
42912;SDS011;50720;54.324;18.558;2023-09-19T06:53:53;6.47;;;4.40;;
42912;SDS011;50720;54.324;18.558;2023-09-19T06:56:41;9.25;;;4.60;;
42912;SDS011;50720;54.324;18.558;2023-09-19T06:59:28;7.43;;;4.53;;
42912;SDS011;50720;54.324;18.558;2023-09-19T07:02:17;9.93;;;4.90;;
42912;SDS011;50720;54.324;18.558;2023-09-19T07:05:06;9.25;;;4.65;;
42912;SDS011;50720;54.324;18.558;2023-09-19T07:07:55;9.98;;;4.80;;
42912;SDS011;50720;54.324;18.558;2023-09-19T07:10:43;9.77;;;4.68;;
42912;SDS011;50720;54.324;18.558;2023-09-19T07:13:33;7.25;;;4.97;;
42912;SDS011;50720;54.324;18.558;2023-09-19T07:16:20;6.07;;;4.32;;
42912;SDS011;50720;54.324;18.558;2023-09-19T07:19:15;4.82;;;4.07;;
42912;SDS011;50720;54.324;18.558;2023-09-19T07:22:01;6.50;;;4.25;;
42912;SDS011;50720;54.324;18.558;2023-09-19T07:24:51;6.43;;;4.03;;
42912;SDS011;50720;54.324;18.558;2023-09-19T07:27:38;13.02;;;4.80;;
42912;SDS011;50720;54.324;18.558;2023-09-19T07:30:25;5.85;;;3.72;;
42912;SDS011;50720;54.324;18.558;2023-09-19T07:33:13;8.32;;;3.60;;
42912;SDS011;50720;54.324;18.558;2023-09-19T07:36:00;4.55;;;3.90;;
42912;SDS011;50720;54.324;18.558;2023-09-19T07:38:47;5.82;;;4.15;;
42912;SDS011;50720;54.324;18.558;2023-09-19T07:41:36;11.55;;;5.20;;
42912;SDS011;50720;54.324;18.558;2023-09-19T07:44:23;5.45;;;4.32;;
42912;SDS011;50720;54.324;18.558;2023-09-19T07:47:11;8.88;;;4.97;;
42912;SDS011;50720;54.324;18.558;2023-09-19T07:49:57;6.35;;;4.25;;
42912;SDS011;50720;54.324;18.558;2023-09-19T07:52:46;9.80;;;4.80;;
42912;SDS011;50720;54.324;18.558;2023-09-19T07:55:34;8.77;;;4.18;;
42912;SDS011;50720;54.324;18.558;2023-09-19T07:58:25;20.85;;;4.57;;
42912;SDS011;50720;54.324;18.558;2023-09-19T08:01:11;8.23;;;5.53;;
42912;SDS011;50720;54.324;18.558;2023-09-19T08:04:00;7.50;;;4.50;;
42912;SDS011;50720;54.324;18.558;2023-09-19T08:06:47;8.10;;;4.45;;
42912;SDS011;50720;54.324;18.558;2023-09-19T08:09:36;6.88;;;4.28;;
42912;SDS011;50720;54.324;18.558;2023-09-19T08:12:23;10.35;;;6.10;;
42912;SDS011;50720;54.324;18.558;2023-09-19T08:15:12;7.03;;;4.22;;
42912;SDS011;50720;54.324;18.558;2023-09-19T08:17:59;5.93;;;3.60;;
42912;SDS011;50720;54.324;18.558;2023-09-19T08:20:49;7.40;;;3.88;;
42912;SDS011;50720;54.324;18.558;2023-09-19T08:23:36;6.03;;;3.20;;
42912;SDS011;50720;54.324;18.558;2023-09-19T08:26:23;6.00;;;3.38;;
42912;SDS011;50720;54.324;18.558;2023-09-19T08:29:11;4.88;;;3.10;;
42912;SDS011;50720;54.324;18.558;2023-09-19T08:32:00;6.60;;;4.13;;
42912;SDS011;50720;54.324;18.558;2023-09-19T08:35:00;7.20;;;3.75;;
42912;SDS011;50720;54.324;18.558;2023-09-19T08:38:12;6.55;;;2.83;;
42912;SDS011;50720;54.324;18.558;2023-09-19T08:41:00;5.53;;;3.35;;
42912;SDS011;50720;54.324;18.558;2023-09-19T08:46:37;40.03;;;8.38;;
42912;SDS011;50720;54.324;18.558;2023-09-19T08:49:33;12.10;;;3.30;;
42912;SDS011;50720;54.324;18.558;2023-09-19T08:52:30;5.53;;;2.83;;
42912;SDS011;50720;54.324;18.558;2023-09-19T08:55:23;10.13;;;3.15;;
42912;SDS011;50720;54.324;18.558;2023-09-19T08:58:14;10.43;;;4.13;;
42912;SDS011;50720;54.324;18.558;2023-09-19T09:01:06;4.97;;;2.70;;
42912;SDS011;50720;54.324;18.558;2023-09-19T09:03:55;5.18;;;2.05;;
42912;SDS011;50720;54.324;18.558;2023-09-19T09:06:44;4.65;;;2.30;;
42912;SDS011;50720;54.324;18.558;2023-09-19T09:09:33;7.05;;;2.47;;
42912;SDS011;50720;54.324;18.558;2023-09-19T09:12:21;4.03;;;2.13;;
42912;SDS011;50720;54.324;18.558;2023-09-19T09:15:08;7.47;;;2.53;;
42912;SDS011;50720;54.324;18.558;2023-09-19T09:18:01;5.68;;;2.95;;
42912;SDS011;50720;54.324;18.558;2023-09-19T09:20:49;7.28;;;2.80;;
42912;SDS011;50720;54.324;18.558;2023-09-19T09:23:39;2.35;;;2.03;;
42912;SDS011;50720;54.324;18.558;2023-09-19T09:29:41;7.07;;;2.13;;
42912;SDS011;50720;54.324;18.558;2023-09-19T09:32:31;5.45;;;2.38;;
42912;SDS011;50720;54.324;18.558;2023-09-19T09:35:21;3.67;;;2.13;;
42912;SDS011;50720;54.324;18.558;2023-09-19T09:38:09;5.30;;;2.33;;
42912;SDS011;50720;54.324;18.558;2023-09-19T09:41:00;3.45;;;1.52;;
42912;SDS011;50720;54.324;18.558;2023-09-19T09:43:51;6.30;;;2.20;;
42912;SDS011;50720;54.324;18.558;2023-09-19T09:46:38;4.28;;;1.85;;
42912;SDS011;50720;54.324;18.558;2023-09-19T09:50:05;3.40;;;1.85;;
42912;SDS011;50720;54.324;18.558;2023-09-19T09:52:51;3.55;;;1.60;;
42912;SDS011;50720;54.324;18.558;2023-09-19T09:58:54;4.70;;;2.08;;
42912;SDS011;50720;54.324;18.558;2023-09-19T10:01:46;2.63;;;1.52;;
42912;SDS011;50720;54.324;18.558;2023-09-19T10:07:29;3.47;;;1.50;;
42912;SDS011;50720;54.324;18.558;2023-09-19T10:10:29;4.35;;;1.73;;
42912;SDS011;50720;54.324;18.558;2023-09-19T10:13:29;7.88;;;2.55;;
42912;SDS011;50720;54.324;18.558;2023-09-19T10:16:18;6.28;;;1.92;;
42912;SDS011;50720;54.324;18.558;2023-09-19T10:19:07;7.47;;;1.52;;
42912;SDS011;50720;54.324;18.558;2023-09-19T10:21:55;2.28;;;1.20;;
42912;SDS011;50720;54.324;18.558;2023-09-19T10:24:45;4.75;;;1.30;;
42912;SDS011;50720;54.324;18.558;2023-09-19T10:27:33;4.85;;;1.55;;
42912;SDS011;50720;54.324;18.558;2023-09-19T10:30:23;9.95;;;1.75;;
42912;SDS011;50720;54.324;18.558;2023-09-19T10:33:13;2.83;;;1.33;;
42912;SDS011;50720;54.324;18.558;2023-09-19T10:36:00;9.05;;;1.50;;
42912;SDS011;50720;54.324;18.558;2023-09-19T10:41:39;3.70;;;1.13;;
42912;SDS011;50720;54.324;18.558;2023-09-19T10:44:29;2.15;;;1.40;;
42912;SDS011;50720;54.324;18.558;2023-09-19T10:47:20;8.10;;;2.20;;
42912;SDS011;50720;54.324;18.558;2023-09-19T10:50:09;6.05;;;1.27;;
42912;SDS011;50720;54.324;18.558;2023-09-19T10:53:06;3.20;;;1.25;;
42912;SDS011;50720;54.324;18.558;2023-09-19T10:55:56;5.50;;;1.17;;
42912;SDS011;50720;54.324;18.558;2023-09-19T10:58:47;2.47;;;1.10;;
42912;SDS011;50720;54.324;18.558;2023-09-19T11:01:42;7.22;;;1.50;;
42912;SDS011;50720;54.324;18.558;2023-09-19T11:04:33;4.72;;;1.38;;
42912;SDS011;50720;54.324;18.558;2023-09-19T11:07:23;6.30;;;1.33;;
42912;SDS011;50720;54.324;18.558;2023-09-19T11:10:10;4.25;;;1.42;;
42912;SDS011;50720;54.324;18.558;2023-09-19T11:13:31;5.32;;;1.00;;
42912;SDS011;50720;54.324;18.558;2023-09-19T11:16:21;3.28;;;1.23;;
42912;SDS011;50720;54.324;18.558;2023-09-19T11:19:08;6.55;;;1.30;;
42912;SDS011;50720;54.324;18.558;2023-09-19T11:21:57;3.38;;;1.42;;
42912;SDS011;50720;54.324;18.558;2023-09-19T11:24:45;2.67;;;1.38;;
42912;SDS011;50720;54.324;18.558;2023-09-19T11:27:31;6.43;;;1.73;;
42912;SDS011;50720;54.324;18.558;2023-09-19T11:30:26;6.25;;;1.50;;
42912;SDS011;50720;54.324;18.558;2023-09-19T11:33:16;1.65;;;1.00;;
42912;SDS011;50720;54.324;18.558;2023-09-19T11:36:08;3.38;;;1.17;;
42912;SDS011;50720;54.324;18.558;2023-09-19T11:39:01;3.65;;;1.27;;
42912;SDS011;50720;54.324;18.558;2023-09-19T11:41:54;6.18;;;1.80;;
42912;SDS011;50720;54.324;18.558;2023-09-19T11:44:41;3.80;;;1.80;;
42912;SDS011;50720;54.324;18.558;2023-09-19T11:47:29;6.07;;;1.48;;
42912;SDS011;50720;54.324;18.558;2023-09-19T11:50:17;14.93;;;1.90;;
42912;SDS011;50720;54.324;18.558;2023-09-19T11:53:06;5.53;;;1.85;;
42912;SDS011;50720;54.324;18.558;2023-09-19T11:55:56;6.22;;;2.55;;
42912;SDS011;50720;54.324;18.558;2023-09-19T11:58:46;11.70;;;2.33;;
42912;SDS011;50720;54.324;18.558;2023-09-19T12:01:41;11.60;;;3.25;;
42912;SDS011;50720;54.324;18.558;2023-09-19T12:04:40;3.67;;;1.70;;
42912;SDS011;50720;54.324;18.558;2023-09-19T12:07:29;3.08;;;1.35;;
42912;SDS011;50720;54.324;18.558;2023-09-19T12:10:28;10.18;;;2.17;;
42912;SDS011;50720;54.324;18.558;2023-09-19T12:13:19;9.13;;;1.80;;
42912;SDS011;50720;54.324;18.558;2023-09-19T12:16:11;3.72;;;1.27;;
42912;SDS011;50720;54.324;18.558;2023-09-19T12:22:07;2.92;;;1.17;;
42912;SDS011;50720;54.324;18.558;2023-09-19T12:24:54;5.25;;;1.58;;
42912;SDS011;50720;54.324;18.558;2023-09-19T12:27:55;4.18;;;1.48;;
42912;SDS011;50720;54.324;18.558;2023-09-19T12:30:49;8.27;;;1.73;;
42912;SDS011;50720;54.324;18.558;2023-09-19T12:33:39;9.10;;;1.48;;
42912;SDS011;50720;54.324;18.558;2023-09-19T12:36:27;3.33;;;1.52;;
42912;SDS011;50720;54.324;18.558;2023-09-19T12:39:24;5.05;;;1.58;;
42912;SDS011;50720;54.324;18.558;2023-09-19T12:42:11;3.60;;;1.38;;
42912;SDS011;50720;54.324;18.558;2023-09-19T12:45:00;8.30;;;1.83;;
42912;SDS011;50720;54.324;18.558;2023-09-19T12:51:08;1.25;;;0.90;;
42912;SDS011;50720;54.324;18.558;2023-09-19T12:53:57;7.15;;;1.38;;
42912;SDS011;50720;54.324;18.558;2023-09-19T12:56:45;5.25;;;1.13;;
42912;SDS011;50720;54.324;18.558;2023-09-19T12:59:33;3.92;;;1.75;;
42912;SDS011;50720;54.324;18.558;2023-09-19T13:02:21;6.38;;;1.40;;
42912;SDS011;50720;54.324;18.558;2023-09-19T13:05:11;5.78;;;1.60;;
42912;SDS011;50720;54.324;18.558;2023-09-19T13:07:59;6.40;;;1.52;;
42912;SDS011;50720;54.324;18.558;2023-09-19T13:11:03;2.35;;;1.40;;
42912;SDS011;50720;54.324;18.558;2023-09-19T13:14:13;8.15;;;1.65;;
42912;SDS011;50720;54.324;18.558;2023-09-19T13:17:02;6.30;;;1.98;;
42912;SDS011;50720;54.324;18.558;2023-09-19T13:19:53;1.88;;;0.98;;
42912;SDS011;50720;54.324;18.558;2023-09-19T13:22:43;3.85;;;1.30;;
42912;SDS011;50720;54.324;18.558;2023-09-19T13:25:34;2.53;;;1.30;;
42912;SDS011;50720;54.324;18.558;2023-09-19T13:28:24;4.55;;;1.25;;
42912;SDS011;50720;54.324;18.558;2023-09-19T13:31:13;2.75;;;1.33;;
42912;SDS011;50720;54.324;18.558;2023-09-19T13:34:00;1.77;;;1.00;;
42912;SDS011;50720;54.324;18.558;2023-09-19T13:36:48;5.80;;;1.20;;
42912;SDS011;50720;54.324;18.558;2023-09-19T13:39:36;2.58;;;1.20;;
42912;SDS011;50720;54.324;18.558;2023-09-19T13:42:27;7.82;;;1.90;;
42912;SDS011;50720;54.324;18.558;2023-09-19T13:45:14;6.32;;;1.58;;
42912;SDS011;50720;54.324;18.558;2023-09-19T13:48:03;7.90;;;1.73;;
42912;SDS011;50720;54.324;18.558;2023-09-19T13:50:52;6.05;;;2.05;;
42912;SDS011;50720;54.324;18.558;2023-09-19T13:53:40;2.78;;;1.00;;
42912;SDS011;50720;54.324;18.558;2023-09-19T13:56:28;5.65;;;1.05;;
42912;SDS011;50720;54.324;18.558;2023-09-19T13:59:17;5.00;;;1.95;;
42912;SDS011;50720;54.324;18.558;2023-09-19T14:02:04;6.07;;;1.33;;
42912;SDS011;50720;54.324;18.558;2023-09-19T14:04:52;4.40;;;1.42;;
42912;SDS011;50720;54.324;18.558;2023-09-19T14:07:39;2.30;;;1.60;;
42912;SDS011;50720;54.324;18.558;2023-09-19T14:10:27;14.65;;;2.55;;
42912;SDS011;50720;54.324;18.558;2023-09-19T14:13:17;4.05;;;1.52;;
42912;SDS011;50720;54.324;18.558;2023-09-19T14:16:05;3.37;;;1.23;;
42912;SDS011;50720;54.324;18.558;2023-09-19T14:18:53;4.55;;;1.40;;
42912;SDS011;50720;54.324;18.558;2023-09-19T14:21:40;2.25;;;1.00;;
42912;SDS011;50720;54.324;18.558;2023-09-19T14:24:27;13.65;;;2.38;;
42912;SDS011;50720;54.324;18.558;2023-09-19T14:27:14;9.95;;;1.70;;
42912;SDS011;50720;54.324;18.558;2023-09-19T14:30:03;5.18;;;2.90;;
42912;SDS011;50720;54.324;18.558;2023-09-19T14:32:51;3.22;;;1.65;;
42912;SDS011;50720;54.324;18.558;2023-09-19T14:35:38;9.20;;;2.40;;
42912;SDS011;50720;54.324;18.558;2023-09-19T14:38:25;5.68;;;1.40;;
42912;SDS011;50720;54.324;18.558;2023-09-19T14:41:12;6.05;;;1.60;;
42912;SDS011;50720;54.324;18.558;2023-09-19T14:43:59;4.07;;;1.50;;
42912;SDS011;50720;54.324;18.558;2023-09-19T14:46:49;6.32;;;2.05;;
42912;SDS011;50720;54.324;18.558;2023-09-19T14:49:37;2.47;;;1.05;;
42912;SDS011;50720;54.324;18.558;2023-09-19T14:52:24;7.03;;;1.60;;
42912;SDS011;50720;54.324;18.558;2023-09-19T14:55:13;3.83;;;1.83;;
42912;SDS011;50720;54.324;18.558;2023-09-19T14:57:59;3.33;;;1.58;;
42912;SDS011;50720;54.324;18.558;2023-09-19T15:00:47;3.50;;;1.48;;
42912;SDS011;50720;54.324;18.558;2023-09-19T15:03:38;3.85;;;1.23;;
42912;SDS011;50720;54.324;18.558;2023-09-19T15:06:27;2.47;;;1.23;;
42912;SDS011;50720;54.324;18.558;2023-09-19T15:09:14;4.60;;;1.23;;
42912;SDS011;50720;54.324;18.558;2023-09-19T15:12:04;5.18;;;1.70;;
42912;SDS011;50720;54.324;18.558;2023-09-19T15:14:51;2.97;;;1.52;;
42912;SDS011;50720;54.324;18.558;2023-09-19T15:17:38;10.38;;;2.20;;
42912;SDS011;50720;54.324;18.558;2023-09-19T15:20:27;3.40;;;1.45;;
42912;SDS011;50720;54.324;18.558;2023-09-19T15:23:15;2.78;;;1.45;;
42912;SDS011;50720;54.324;18.558;2023-09-19T15:26:03;8.20;;;1.92;;
42912;SDS011;50720;54.324;18.558;2023-09-19T15:28:51;6.47;;;1.90;;
42912;SDS011;50720;54.324;18.558;2023-09-19T15:31:39;3.88;;;1.50;;
42912;SDS011;50720;54.324;18.558;2023-09-19T15:34:27;5.88;;;1.58;;
42912;SDS011;50720;54.324;18.558;2023-09-19T15:37:16;3.95;;;1.67;;
42912;SDS011;50720;54.324;18.558;2023-09-19T15:40:04;5.82;;;2.10;;
42912;SDS011;50720;54.324;18.558;2023-09-19T15:42:55;4.28;;;1.75;;
42912;SDS011;50720;54.324;18.558;2023-09-19T15:45:42;3.70;;;2.20;;
42912;SDS011;50720;54.324;18.558;2023-09-19T15:48:29;4.50;;;1.30;;
42912;SDS011;50720;54.324;18.558;2023-09-19T15:51:16;8.70;;;2.08;;
42912;SDS011;50720;54.324;18.558;2023-09-19T15:54:08;4.25;;;1.75;;
42912;SDS011;50720;54.324;18.558;2023-09-19T15:56:58;3.25;;;1.73;;
42912;SDS011;50720;54.324;18.558;2023-09-19T15:59:45;7.10;;;1.80;;
42912;SDS011;50720;54.324;18.558;2023-09-19T16:02:34;11.52;;;2.55;;
42912;SDS011;50720;54.324;18.558;2023-09-19T16:05:21;4.20;;;2.40;;
42912;SDS011;50720;54.324;18.558;2023-09-19T16:08:09;4.07;;;1.73;;
42912;SDS011;50720;54.324;18.558;2023-09-19T16:10:57;4.32;;;2.05;;
42912;SDS011;50720;54.324;18.558;2023-09-19T16:13:44;2.85;;;1.92;;
42912;SDS011;50720;54.324;18.558;2023-09-19T16:16:33;3.80;;;2.08;;
42912;SDS011;50720;54.324;18.558;2023-09-19T16:19:20;3.53;;;1.83;;
42912;SDS011;50720;54.324;18.558;2023-09-19T16:22:07;4.75;;;2.03;;
42912;SDS011;50720;54.324;18.558;2023-09-19T16:24:55;3.08;;;2.20;;
42912;SDS011;50720;54.324;18.558;2023-09-19T16:27:44;2.88;;;1.77;;
42912;SDS011;50720;54.324;18.558;2023-09-19T16:30:31;7.20;;;2.00;;
42912;SDS011;50720;54.324;18.558;2023-09-19T16:33:19;4.07;;;2.13;;
42912;SDS011;50720;54.324;18.558;2023-09-19T16:36:09;4.13;;;1.80;;
42912;SDS011;50720;54.324;18.558;2023-09-19T16:38:56;8.65;;;1.52;;
42912;SDS011;50720;54.324;18.558;2023-09-19T16:41:44;3.72;;;1.88;;
42912;SDS011;50720;54.324;18.558;2023-09-19T16:44:34;6.82;;;2.08;;
42912;SDS011;50720;54.324;18.558;2023-09-19T16:47:21;6.13;;;2.08;;
42912;SDS011;50720;54.324;18.558;2023-09-19T16:50:09;3.67;;;1.83;;
42912;SDS011;50720;54.324;18.558;2023-09-19T16:52:57;2.80;;;1.67;;
42912;SDS011;50720;54.324;18.558;2023-09-19T16:55:44;3.85;;;2.03;;
42912;SDS011;50720;54.324;18.558;2023-09-19T16:58:31;3.85;;;2.05;;
42912;SDS011;50720;54.324;18.558;2023-09-19T17:01:20;4.82;;;2.15;;